Time,TemperatureF,DewpointF,PressureIn,WindDirection,WindDirectionDegrees,WindSpeedMPH,WindSpeedGustMPH,Humidity,HourlyPrecipIn,Conditions,Clouds,dailyrainin,SoftwareType,DateUTC
2013-11-16 00:00:00,43.0,39.4,30.36,North,1,0.0,0.0,87,0.00,CLR,SKC,0.00,WeatherDisplay:10.37,2013-11-15 23:00:00,
2013-11-16 00:10:00,42.6,39.0,30.36,North,1,0.0,0.0,87,0.00,CLR,SKC,0.00,WeatherDisplay:10.37,2013-11-15 23:10:00,
2013-11-16 00:20:00,42.4,38.8,30.35,North,1,0.0,0.0,87,0.00,CLR,SKC,0.00,WeatherDisplay:10.37,2013-11-15 23:20:00,
2013-11-16 00:30:00,42.1,38.5,30.35,North,1,0.0,0.0,87,0.00,CLR,SKC,0.00,WeatherDisplay:10.37,2013-11-15 23:30:00,
2013-11-16 00:40:00,41.7,38.2,30.35,North,1,0.0,0.0,87,0.00,CLR,SKC,0.00,WeatherDisplay:10.37,2013-11-15 23:40:00,
2013-11-16 00:50:00,41.7,38.4,30.35,North,1,0.0,0.0,88,0.00,CLR,SKC,0.00,WeatherDisplay:10.37,2013-11-15 23:50:00,
2013-11-16 01:00:00,41.5,38.3,30.35,North,1,0.0,0.0,88,0.00,CLR,SKC,0.00,WeatherDisplay:10.37,2013-11-16 00:00:00,
2013-11-16 01:10:00,41.7,38.4,30.36,North,1,0.0,0.0,88,0.00,CLR,SKC,0.00,WeatherDisplay:10.37,2013-11-16 00:10:00,
2013-11-16 01:20:00,41.8,38.5,30.37,North,1,0.0,0.0,88,0.00,CLR,SKC,0.00,WeatherDisplay:10.37,2013-11-16 00:20:00,
2013-11-16 01:30:00,41.9,38.9,30.37,North,1,0.0,0.0,89,0.00,CLR,SKC,0.00,WeatherDisplay:10.37,2013-11-16 00:30:00,
2013-11-16 01:40:00,41.7,38.7,30.37,North,1,0.0,0.0,89,0.00,CLR,SKC,0.00,WeatherDisplay:10.37,2013-11-16 00:40:00,
2013-11-16 01:50:00,41.7,38.7,30.37,North,1,0.0,0.0,89,0.00,CLR,SKC,0.00,WeatherDisplay:10.37,2013-11-16 00:50:00,
2013-11-16 02:00:00,41.9,38.9,30.37,North,1,0.0,0.0,89,0.00,CLR,SKC,0.00,WeatherDisplay:10.37,2013-11-16 01:00:00,
2013-11-16 02:10:00,42.1,39.1,30.37,North,1,0.0,0.0,89,0.00,CLR,SKC,0.00,WeatherDisplay:10.37,2013-11-16 01:10:00,
2013-11-16 02:20:00,42.1,39.1,30.38,North,1,0.0,0.0,89,0.00,CLR,SKC,0.00,WeatherDisplay:10.37,2013-11-16 01:20:00,
2013-11-16 02:30:00,42.1,39.1,30.37,North,1,0.0,0.0,89,0.00,CLR,SKC,0.00,WeatherDisplay:10.37,2013-11-16 01:30:00,
2013-11-16 02:40:00,42.1,39.1,30.37,North,1,0.0,0.0,89,0.00,CLR,SKC,0.00,WeatherDisplay:10.37,2013-11-16 01:40:00,
2013-11-16 02:50:00,42.1,39.1,30.36,North,1,0.0,0.0,89,0.00,CLR,SKC,0.00,WeatherDisplay:10.37,2013-11-16 01:50:00,
2013-11-16 03:00:00,41.9,38.9,30.35,North,1,0.0,0.0,89,0.00,CLR,SKC,0.00,WeatherDisplay:10.37,2013-11-16 02:00:00,
2013-11-16 03:10:00,41.4,38.1,30.34,North,1,0.0,0.0,88,0.00,CLR,SKC,0.00,WeatherDisplay:10.37,2013-11-16 02:10:00,
2013-11-16 03:20:00,40.8,37.5,30.35,North,1,0.0,0.0,88,0.00,CLR,SKC,0.00,WeatherDisplay:10.37,2013-11-16 02:20:00,
2013-11-16 03:30:00,40.3,37.3,30.35,North,1,0.0,0.0,89,0.00,CLR,SKC,0.00,WeatherDisplay:10.37,2013-11-16 02:30:00,
2013-11-16 03:40:00,39.7,36.8,30.36,North,1,0.0,0.0,89,0.00,CLR,SKC,0.00,WeatherDisplay:10.37,2013-11-16 02:40:00,
2013-11-16 03:50:00,39.6,36.6,30.36,North,1,0.0,0.0,89,0.00,CLR,SKC,0.00,WeatherDisplay:10.37,2013-11-16 02:50:00,
2013-11-16 04:00:00,39.0,36.1,30.35,North,1,0.0,0.0,89,0.00,CLR,SKC,0.00,WeatherDisplay:10.37,2013-11-16 03:00:00,
2013-11-16 04:10:00,38.3,35.3,30.36,North,1,0.0,0.0,89,0.00,CLR,SKC,0.00,WeatherDisplay:10.37,2013-11-16 03:10:00,
2013-11-16 04:20:00,37.9,35.0,30.36,North,1,0.0,0.0,89,0.00,CLR,SKC,0.00,WeatherDisplay:10.37,2013-11-16 03:20:00,
2013-11-16 04:30:00,37.9,35.0,30.36,North,1,0.0,0.0,89,0.00,CLR,SKC,0.00,WeatherDisplay:10.37,2013-11-16 03:30:00,
2013-11-16 04:40:00,37.9,35.0,30.37,North,1,0.0,0.0,89,0.00,CLR,SKC,0.00,WeatherDisplay:10.37,2013-11-16 03:40:00,
2013-11-16 04:50:00,37.9,35.0,30.36,North,1,0.0,0.0,89,0.00,CLR,SKC,0.00,WeatherDisplay:10.37,2013-11-16 03:50:00,
2013-11-16 05:00:00,37.9,35.0,30.36,North,1,0.0,0.0,89,0.00,CLR,SKC,0.00,WeatherDisplay:10.37,2013-11-16 04:00:00,
2013-11-16 05:10:00,37.8,34.8,30.36,North,1,0.0,0.0,89,0.00,CLR,SKC,0.00,WeatherDisplay:10.37,2013-11-16 04:10:00,
2013-11-16 05:20:00,37.8,34.8,30.36,North,1,0.0,0.0,89,0.00,CLR,SKC,0.00,WeatherDisplay:10.37,2013-11-16 04:20:00,
2013-11-16 05:30:00,37.6,34.6,30.36,North,1,0.0,0.0,89,0.00,CLR,SKC,0.00,WeatherDisplay:10.37,2013-11-16 04:30:00,
2013-11-16 05:40:00,37.9,35.2,30.37,North,1,0.0,0.0,90,0.00,CLR,SKC,0.00,WeatherDisplay:10.37,2013-11-16 04:40:00,
2013-11-16 05:50:00,37.9,35.3,30.36,North,1,0.0,0.0,90,0.00,CLR,SKC,0.00,WeatherDisplay:10.37,2013-11-16 04:50:00,
2013-11-16 06:00:00,37.9,35.3,30.37,North,1,0.0,0.0,90,0.00,CLR,SKC,0.00,WeatherDisplay:10.37,2013-11-16 05:00:00,
2013-11-16 06:10:00,37.9,35.3,30.37,North,1,0.0,0.0,90,0.00,CLR,SKC,0.00,WeatherDisplay:10.37,2013-11-16 05:10:00,
2013-11-16 06:20:00,37.8,35.1,30.37,North,1,0.0,0.0,90,0.00,CLR,SKC,0.00,WeatherDisplay:10.37,2013-11-16 05:20:00,
2013-11-16 06:30:00,37.8,35.1,30.37,North,1,0.0,0.0,90,0.00,CLR,SKC,0.00,WeatherDisplay:10.37,2013-11-16 05:30:00,
2013-11-16 06:40:00,37.8,35.1,30.37,North,1,0.0,0.0,90,0.00,CLR,SKC,0.00,WeatherDisplay:10.37,2013-11-16 05:40:00,
2013-11-16 06:50:00,38.1,35.4,30.37,North,1,0.0,0.0,90,0.00,CLR,SKC,0.00,WeatherDisplay:10.37,2013-11-16 05:50:00,
2013-11-16 07:00:00,38.1,35.4,30.38,North,1,0.0,0.0,90,0.00,CLR,SKC,0.00,WeatherDisplay:10.37,2013-11-16 06:00:00,
2013-11-16 07:10:00,38.1,35.4,30.38,North,1,0.0,0.0,90,0.00,CLR,SKC,0.00,WeatherDisplay:10.37,2013-11-16 06:10:00,
2013-11-16 07:20:00,38.3,35.6,30.38,North,1,0.0,0.0,90,0.00,CLR,SKC,0.00,WeatherDisplay:10.37,2013-11-16 06:20:00,
2013-11-16 07:30:00,38.5,35.8,30.39,North,1,0.0,0.0,90,0.00,CLR,SKC,0.00,WeatherDisplay:10.37,2013-11-16 06:30:00,
2013-11-16 07:40:00,39.0,36.3,30.39,North,1,0.0,0.0,90,0.00,CLR,SKC,0.00,WeatherDisplay:10.37,2013-11-16 06:40:00,
2013-11-16 07:50:00,39.6,36.9,30.39,North,1,0.0,0.0,90,0.00,CLR,SKC,0.00,WeatherDisplay:10.37,2013-11-16 06:50:00,
2013-11-16 08:00:00,39.9,37.5,30.39,North,1,0.0,0.0,91,0.00,CLR,SKC,0.00,WeatherDisplay:10.37,2013-11-16 07:00:00,
2013-11-16 08:10:00,40.2,37.8,30.39,North,1,0.0,0.0,91,0.00,CLR,SKC,0.00,WeatherDisplay:10.37,2013-11-16 07:10:00,
2013-11-16 08:20:00,40.7,38.3,30.39,North,1,0.0,0.0,91,0.00,CLR,SKC,0.00,WeatherDisplay:10.37,2013-11-16 07:20:00,
2013-11-16 08:30:00,41.4,38.9,30.40,North,1,0.0,0.0,91,0.00,CLR,SKC,0.00,WeatherDisplay:10.37,2013-11-16 07:30:00,
2013-11-16 08:40:00,42.0,39.6,30.40,North,1,0.0,0.0,91,0.00,CLR,SKC,0.00,WeatherDisplay:10.37,2013-11-16 07:40:00,
2013-11-16 08:50:00,42.6,40.1,30.40,North,1,0.0,0.0,91,0.00,CLR,SKC,0.00,WeatherDisplay:10.37,2013-11-16 07:50:00,
2013-11-16 09:00:00,43.2,40.7,30.40,North,1,0.0,0.0,91,0.00,CLR,SKC,0.00,WeatherDisplay:10.37,2013-11-16 08:00:00,
2013-11-16 09:10:00,43.6,41.2,30.40,North,1,0.0,0.0,91,0.00,CLR,SKC,0.00,WeatherDisplay:10.37,2013-11-16 08:10:00,
2013-11-16 09:20:00,44.3,41.8,30.40,North,1,0.0,0.0,91,0.00,CLR,SKC,0.00,WeatherDisplay:10.37,2013-11-16 08:20:00,
2013-11-16 09:30:00,44.7,42.2,30.40,North,1,0.0,0.0,91,0.00,CLR,SKC,0.00,WeatherDisplay:10.37,2013-11-16 08:30:00,
2013-11-16 09:40:00,45.1,42.7,30.41,North,1,0.0,0.0,91,0.00,CLR,SKC,0.00,WeatherDisplay:10.37,2013-11-16 08:40:00,
2013-11-16 09:50:00,45.7,43.2,30.41,North,1,0.0,0.0,91,0.00,CLR,SKC,0.00,WeatherDisplay:10.37,2013-11-16 08:50:00,
2013-11-16 10:00:00,46.2,43.7,30.41,North,1,0.0,0.0,91,0.00,CLR,SKC,0.00,WeatherDisplay:10.37,2013-11-16 09:00:00,
2013-11-16 10:10:00,46.7,44.3,30.41,North,1,0.0,0.0,91,0.00,CLR,SKC,0.00,WeatherDisplay:10.37,2013-11-16 09:10:00,
2013-11-16 10:20:00,46.9,44.4,30.40,North,1,0.0,0.0,91,0.00,CLR,SKC,0.00,WeatherDisplay:10.37,2013-11-16 09:20:00,
2013-11-16 10:30:00,47.3,44.8,30.40,North,1,0.0,0.0,91,0.00,CLR,SKC,0.00,WeatherDisplay:10.37,2013-11-16 09:30:00,
2013-11-16 10:40:00,47.8,45.0,30.40,North,1,0.0,0.0,90,0.00,CLR,SKC,0.00,WeatherDisplay:10.37,2013-11-16 09:40:00,
2013-11-16 10:50:00,47.8,44.8,30.39,North,1,0.0,0.0,89,0.00,CLR,SKC,0.00,WeatherDisplay:10.37,2013-11-16 09:50:00,
2013-11-16 11:00:00,48.0,44.9,30.39,North,1,0.0,0.0,89,0.00,CLR,SKC,0.00,WeatherDisplay:10.37,2013-11-16 10:00:00,
2013-11-16 11:10:00,48.7,45.3,30.38,North,1,0.0,0.0,88,0.00,CLR,SKC,0.00,WeatherDisplay:10.37,2013-11-16 10:10:00,
2013-11-16 11:20:00,49.1,45.0,30.38,North,1,0.0,0.0,86,0.00,CLR,SKC,0.00,WeatherDisplay:10.37,2013-11-16 10:20:00,
2013-11-16 11:30:00,49.8,45.5,30.38,North,1,0.0,0.0,85,0.00,CLR,SKC,0.00,WeatherDisplay:10.37,2013-11-16 10:30:00,
2013-11-16 11:40:00,50.5,45.9,30.38,North,1,0.0,0.0,84,0.00,CLR,SKC,0.00,WeatherDisplay:10.37,2013-11-16 10:40:00,
2013-11-16 11:50:00,51.0,45.7,30.38,North,1,0.0,0.0,82,0.00,CLR,SKC,0.00,WeatherDisplay:10.37,2013-11-16 10:50:00,
2013-11-16 12:00:00,51.6,46.0,30.38,North,1,0.0,0.0,81,0.00,CLR,SKC,0.00,WeatherDisplay:10.37,2013-11-16 11:00:00,
2013-11-16 12:10:00,51.8,45.5,30.37,North,1,0.0,0.0,79,0.00,CLR,SKC,0.00,WeatherDisplay:10.37,2013-11-16 11:10:00,
2013-11-16 12:20:00,52.3,45.6,30.37,North,1,0.0,0.0,78,0.00,CLR,SKC,0.00,WeatherDisplay:10.37,2013-11-16 11:20:00,
2013-11-16 12:30:00,52.9,45.5,30.37,North,1,0.0,0.0,76,0.00,CLR,SKC,0.00,WeatherDisplay:10.37,2013-11-16 11:30:00,
2013-11-16 12:40:00,53.2,45.5,30.37,North,1,0.0,0.0,75,0.00,CLR,SKC,0.00,WeatherDisplay:10.37,2013-11-16 11:40:00,
2013-11-16 12:50:00,53.2,45.5,30.36,North,1,0.0,0.0,75,0.00,CLR,SKC,0.00,WeatherDisplay:10.37,2013-11-16 11:50:00,
2013-11-16 13:00:00,53.2,45.2,30.37,North,1,0.0,0.0,74,0.00,CLR,SKC,0.00,WeatherDisplay:10.37,2013-11-16 12:00:00,
2013-11-16 13:10:00,53.2,44.8,30.36,North,1,0.0,0.0,73,0.00,CLR,SKC,0.00,WeatherDisplay:10.37,2013-11-16 12:10:00,
2013-11-16 13:20:00,53.2,45.2,30.36,North,1,0.0,0.0,74,0.00,CLR,SKC,0.00,WeatherDisplay:10.37,2013-11-16 12:20:00,
2013-11-16 13:30:00,52.9,44.8,30.35,North,1,0.0,0.0,74,0.00,CLR,SKC,0.00,WeatherDisplay:10.37,2013-11-16 12:30:00,
2013-11-16 13:40:00,52.9,45.2,30.35,North,1,0.0,0.0,75,0.00,CLR,SKC,0.00,WeatherDisplay:10.37,2013-11-16 12:40:00,
2013-11-16 13:50:00,52.9,45.5,30.36,North,1,0.0,0.0,76,0.00,CLR,SKC,0.00,WeatherDisplay:10.37,2013-11-16 12:50:00,
2013-11-16 14:00:00,52.9,45.5,30.35,North,1,0.0,0.0,76,0.00,CLR,SKC,0.00,WeatherDisplay:10.37,2013-11-16 13:00:00,
2013-11-16 14:10:00,52.9,45.5,30.35,North,1,0.0,0.0,76,0.00,CLR,SKC,0.00,WeatherDisplay:10.37,2013-11-16 13:10:00,
2013-11-16 14:20:00,52.9,45.5,30.35,North,1,0.0,0.0,76,0.00,CLR,SKC,0.00,WeatherDisplay:10.37,2013-11-16 13:20:00,
2013-11-16 14:30:00,52.9,45.5,30.35,North,1,0.0,0.0,76,0.00,CLR,SKC,0.00,WeatherDisplay:10.37,2013-11-16 13:30:00,
2013-11-16 14:40:00,52.9,45.2,30.35,North,1,0.0,0.0,75,0.00,CLR,SKC,0.00,WeatherDisplay:10.37,2013-11-16 13:40:00,
2013-11-16 14:50:00,52.7,45.3,30.35,North,1,0.0,0.0,76,0.00,CLR,SKC,0.00,WeatherDisplay:10.37,2013-11-16 13:50:00,
2013-11-16 15:00:00,52.3,44.6,30.35,North,1,0.0,0.0,75,0.00,CLR,SKC,0.00,WeatherDisplay:10.37,2013-11-16 14:00:00,
2013-11-16 15:10:00,52.0,44.6,30.35,North,1,0.0,0.0,76,0.00,CLR,SKC,0.00,WeatherDisplay:10.37,2013-11-16 14:10:00,
2013-11-16 15:20:00,51.6,44.6,30.34,North,1,0.0,0.0,77,0.00,CLR,SKC,0.00,WeatherDisplay:10.37,2013-11-16 14:20:00,
2013-11-16 15:30:00,50.9,43.9,30.34,North,1,0.0,0.0,77,0.00,CLR,SKC,0.00,WeatherDisplay:10.37,2013-11-16 14:30:00,
2013-11-16 15:40:00,50.4,43.8,30.34,North,1,0.0,0.0,78,0.00,CLR,SKC,0.00,WeatherDisplay:10.37,2013-11-16 14:40:00,
2013-11-16 15:50:00,49.6,43.1,30.34,North,1,0.0,0.0,78,0.00,CLR,SKC,0.00,WeatherDisplay:10.37,2013-11-16 14:50:00,
2013-11-16 16:00:00,48.7,42.5,30.34,North,1,0.0,0.0,79,0.00,CLR,SKC,0.00,WeatherDisplay:10.37,2013-11-16 15:00:00,
2013-11-16 16:10:00,47.8,42.3,30.34,North,1,0.0,0.0,81,0.00,CLR,SKC,0.00,WeatherDisplay:10.37,2013-11-16 15:10:00,
2013-11-16 16:20:00,47.3,41.8,30.34,North,1,0.0,0.0,81,0.00,CLR,SKC,0.00,WeatherDisplay:10.37,2013-11-16 15:20:00,
2013-11-16 16:30:00,46.6,41.4,30.33,North,1,0.0,0.0,82,0.00,CLR,SKC,0.00,WeatherDisplay:10.37,2013-11-16 15:30:00,
2013-11-16 16:40:00,45.7,40.8,30.33,North,1,0.0,0.0,83,0.00,CLR,SKC,0.00,WeatherDisplay:10.37,2013-11-16 15:40:00,
2013-11-16 16:50:00,45.0,40.2,30.33,North,1,0.0,0.0,83,0.00,CLR,SKC,0.00,WeatherDisplay:10.37,2013-11-16 15:50:00,
2013-11-16 17:00:00,44.4,39.9,30.33,North,1,0.0,0.0,84,0.00,CLR,SKC,0.00,WeatherDisplay:10.37,2013-11-16 16:00:00,
2013-11-16 17:10:00,43.9,39.7,30.33,North,1,0.0,0.0,85,0.00,CLR,SKC,0.00,WeatherDisplay:10.37,2013-11-16 16:10:00,
2013-11-16 17:20:00,43.3,39.1,30.33,North,1,0.0,0.0,85,0.00,CLR,SKC,0.00,WeatherDisplay:10.37,2013-11-16 16:20:00,
2013-11-16 17:30:00,43.0,39.0,30.33,North,1,0.0,0.0,86,0.00,CLR,SKC,0.00,WeatherDisplay:10.37,2013-11-16 16:30:00,
2013-11-16 17:40:00,42.6,39.0,30.33,North,1,0.0,0.0,87,0.00,CLR,SKC,0.00,WeatherDisplay:10.37,2013-11-16 16:40:00,
2013-11-16 17:50:00,42.2,38.6,30.33,North,1,0.0,0.0,87,0.00,CLR,SKC,0.00,WeatherDisplay:10.37,2013-11-16 16:50:00,
2013-11-16 18:00:00,41.5,38.0,30.33,North,1,0.0,0.0,87,0.00,CLR,SKC,0.00,WeatherDisplay:10.37,2013-11-16 17:00:00,
2013-11-16 18:10:00,41.2,37.6,30.33,North,1,0.0,0.0,87,0.00,CLR,SKC,0.00,WeatherDisplay:10.37,2013-11-16 17:10:00,
2013-11-16 18:20:00,40.8,37.3,30.33,North,1,0.0,0.0,87,0.00,CLR,SKC,0.00,WeatherDisplay:10.37,2013-11-16 17:20:00,
2013-11-16 18:30:00,40.6,37.4,30.33,North,1,0.0,0.0,88,0.00,CLR,SKC,0.00,WeatherDisplay:10.37,2013-11-16 17:30:00,
2013-11-16 18:40:00,39.9,36.7,30.33,North,1,0.0,0.0,88,0.00,CLR,SKC,0.00,WeatherDisplay:10.37,2013-11-16 17:40:00,
2013-11-16 18:50:00,39.4,36.1,30.33,North,1,0.0,0.0,88,0.00,CLR,SKC,0.00,WeatherDisplay:10.37,2013-11-16 17:50:00,
2013-11-16 19:00:00,39.0,35.8,30.34,North,1,0.0,0.0,88,0.00,CLR,SKC,0.00,WeatherDisplay:10.37,2013-11-16 18:00:00,
2013-11-16 19:10:00,39.0,36.1,30.34,North,1,0.0,0.0,89,0.00,CLR,SKC,0.00,WeatherDisplay:10.37,2013-11-16 18:10:00,
2013-11-16 19:20:00,39.0,36.1,30.33,North,1,0.0,0.0,89,0.00,CLR,SKC,0.00,WeatherDisplay:10.37,2013-11-16 18:20:00,
2013-11-16 19:30:00,38.8,35.9,30.33,North,1,0.0,0.0,89,0.00,CLR,SKC,0.00,WeatherDisplay:10.37,2013-11-16 18:30:00,
2013-11-16 19:40:00,38.1,35.2,30.33,North,1,0.0,0.0,89,0.00,CLR,SKC,0.00,WeatherDisplay:10.37,2013-11-16 18:40:00,
2013-11-16 19:50:00,38.3,35.3,30.33,North,1,0.0,0.0,89,0.00,CLR,SKC,0.00,WeatherDisplay:10.37,2013-11-16 18:50:00,
2013-11-16 20:00:00,38.5,35.5,30.33,North,1,0.0,0.0,89,0.00,CLR,SKC,0.00,WeatherDisplay:10.37,2013-11-16 19:00:00,
2013-11-16 20:10:00,38.3,35.3,30.33,North,1,0.0,0.0,89,0.00,CLR,SKC,0.00,WeatherDisplay:10.37,2013-11-16 19:10:00,
2013-11-16 20:20:00,38.3,35.3,30.33,North,1,0.0,0.0,89,0.00,CLR,SKC,0.00,WeatherDisplay:10.37,2013-11-16 19:20:00,
2013-11-16 20:30:00,37.8,34.8,30.33,North,1,0.0,0.0,89,0.00,CLR,SKC,0.00,WeatherDisplay:10.37,2013-11-16 19:30:00,
2013-11-16 20:40:00,37.6,34.6,30.32,North,1,0.0,0.0,89,0.00,CLR,SKC,0.00,WeatherDisplay:10.37,2013-11-16 19:40:00,
2013-11-16 20:50:00,37.0,34.1,30.33,North,1,0.0,0.0,89,0.00,CLR,SKC,0.00,WeatherDisplay:10.37,2013-11-16 19:50:00,
2013-11-16 21:00:00,37.0,34.1,30.33,North,1,0.0,0.0,89,0.00,CLR,SKC,0.00,WeatherDisplay:10.37,2013-11-16 20:00:00,
2013-11-16 21:10:00,37.2,34.3,30.33,North,1,0.0,0.0,89,0.00,CLR,SKC,0.00,WeatherDisplay:10.37,2013-11-16 20:10:00,
2013-11-16 21:20:00,37.2,34.6,30.33,North,1,0.0,0.0,90,0.00,CLR,SKC,0.00,WeatherDisplay:10.37,2013-11-16 20:20:00,
2013-11-16 21:30:00,37.2,34.6,30.33,North,1,0.0,0.0,90,0.00,CLR,SKC,0.00,WeatherDisplay:10.37,2013-11-16 20:30:00,
2013-11-16 21:40:00,37.4,34.7,30.32,North,1,0.0,0.0,90,0.00,CLR,SKC,0.00,WeatherDisplay:10.37,2013-11-16 20:40:00,
2013-11-16 21:50:00,37.6,34.9,30.32,North,1,0.0,0.0,90,0.00,CLR,SKC,0.00,WeatherDisplay:10.37,2013-11-16 20:50:00,
2013-11-16 22:00:00,37.6,34.9,30.32,North,1,0.0,0.0,90,0.00,CLR,SKC,0.00,WeatherDisplay:10.37,2013-11-16 21:00:00,
2013-11-16 22:10:00,37.2,34.6,30.32,North,1,0.0,0.0,90,0.00,CLR,SKC,0.00,WeatherDisplay:10.37,2013-11-16 21:10:00,
2013-11-16 22:20:00,37.0,34.4,30.33,North,1,0.0,0.0,90,0.00,CLR,SKC,0.00,WeatherDisplay:10.37,2013-11-16 21:20:00,
2013-11-16 22:30:00,36.7,34.0,30.32,North,1,0.0,0.0,90,0.00,CLR,SKC,0.00,WeatherDisplay:10.37,2013-11-16 21:30:00,
2013-11-16 22:40:00,36.3,33.7,30.32,North,1,0.0,0.0,90,0.00,CLR,SKC,0.00,WeatherDisplay:10.37,2013-11-16 21:40:00,
2013-11-16 22:50:00,36.1,33.4,30.32,North,1,0.0,0.0,90,0.00,CLR,SKC,0.00,WeatherDisplay:10.37,2013-11-16 21:50:00,
2013-11-16 23:00:00,36.0,33.3,30.33,North,1,0.0,0.0,90,0.00,CLR,SKC,0.00,WeatherDisplay:10.37,2013-11-16 22:00:00,
2013-11-16 23:10:00,36.3,33.7,30.33,North,1,0.0,0.0,90,0.00,CLR,SKC,0.00,WeatherDisplay:10.37,2013-11-16 22:10:00,
2013-11-16 23:20:00,36.5,34.1,30.33,North,1,0.0,0.0,91,0.00,CLR,SKC,0.00,WeatherDisplay:10.37,2013-11-16 22:20:00,
2013-11-16 23:30:00,36.9,34.5,30.33,North,1,0.0,0.0,91,0.00,CLR,SKC,0.00,WeatherDisplay:10.37,2013-11-16 22:30:00,
2013-11-16 23:40:00,36.9,34.5,30.32,North,1,0.0,0.0,91,0.00,CLR,SKC,0.00,WeatherDisplay:10.37,2013-11-16 22:40:00,
2013-11-16 23:50:00,36.9,34.5,30.32,North,1,0.0,0.0,91,0.00,CLR,SKC,0.00,WeatherDisplay:10.37,2013-11-16 22:50:00,